Lake Park, Iowa
Current Conditions -  °F | °C
As of 12:35 AM on Saturday 20 Dec 2014 (Local Time) from KOTG Reporting Station
Overcast Overcast  
Wind Chill: 20°   Ceiling: 600
Heat Index: 28°   Visibility: 4mi
Dew Point: 28°   Wind: 9mph
Humidity: 100%   Direction: 180°S
Pressure: 30.09"   Gusts: NA
Location:  43.46°N, 95.32°W
Report Text: KOTG 200635Z AUTO 18008KT 4SM OVC006 M02/M02 A3009 RMK AO1
Loading
Personal Weather Stations






























Interactive Weather Map New forecast layout! Learn more

10-Day Weather Forecast

Advertisements
Track Severe Weather on mobile